Time;durP1;ratioP1;P1;durP2;ratioP2;P2;SDS_P1;SDS_P2;PMS_P1;PMS_P2;Temp;Humidity;BMP_temperature;BMP_pressure;BME280_temperature;BME280_humidity;BME280_pressure;Samples;Min_cycle;Max_cycle;Signal;HPM_P1;HPM_P2
2022/12/15 00:40:57;;;;;;;56.65;35.40;;;-7.10;1.00;;;;;;5054409;28;20302;-79
2022/12/15 00:43:34;;;;;;;58.17;35.00;;;-7.20;1.00;;;;;;5057930;28;20241;-76
2022/12/15 00:48:47;;;;;;;66.25;37.67;;;-7.30;1.00;;;;;;5072026;28;20313;-82
2022/12/15 00:51:14;;;;;;;59.28;39.05;;;-7.40;1.00;;;;;;5067059;28;20244;-79
2022/12/15 01:21:40;;;;;;;61.60;42.03;;;-7.50;1.00;;;;;;5079989;28;20232;-80
2022/12/15 01:24:11;;;;;;;76.78;44.03;;;-7.50;1.00;;;;;;5071606;28;20493;-79
2022/12/15 01:26:38;;;;;;;75.85;45.00;;;-7.60;1.00;;;;;;5080040;28;20289;-79
2022/12/15 01:29:05;;;;;;;73.78;47.55;;;-7.60;1.00;;;;;;5080300;28;20239;-79
2022/12/15 01:31:35;;;;;;;70.45;45.67;;;-7.60;1.00;;;;;;5083953;28;21000;-81
2022/12/15 01:34:02;;;;;;;73.35;47.50;;;-7.60;1.00;;;;;;5083339;28;21870;-79
2022/12/15 01:36:32;;;;;;;71.88;45.88;;;-7.50;1.00;;;;;;5070634;28;20228;-80
2022/12/15 01:38:59;;;;;;;76.18;47.90;;;-7.50;1.00;;;;;;5075563;28;22009;-82
2022/12/15 01:41:25;;;;;;;76.90;49.58;;;-7.50;1.00;;;;;;5069919;28;20241;-81
2022/12/15 01:43:53;;;;;;;74.00;45.88;;;-7.50;1.00;;;;;;5079681;28;20267;-81
2022/12/15 01:46:23;;;;;;;72.78;47.17;;;-7.50;1.00;;;;;;5072754;28;21078;-80
2022/12/15 01:49:00;;;;;;;75.82;47.60;;;-7.50;1.00;;;;;;5071333;28;21028;-81
2022/12/15 01:51:32;;;;;;;74.63;47.40;;;-7.50;1.00;;;;;;5061104;28;20286;-78
2022/12/15 01:54:05;;;;;;;71.20;45.40;;;-7.50;1.00;;;;;;5057999;28;20267;-79
2022/12/15 02:00:01;;;;;;;71.20;46.10;;;-7.40;1.00;;;;;;5012451;28;20244;-81
2022/12/15 02:05:34;;;;;;;;;;;;;;;;;;;;;
2022/12/15 02:08:05;;;;;;;68.95;43.33;;;-7.30;1.00;;;;;;5081749;27;50967;-77
2022/12/15 02:11:13;;;;;;;;;;;;;;;;;;;;;
2022/12/15 02:14:15;;;;;;;58.75;40.72;;;-7.20;1.00;;;;;;5028648;28;40595;-81
2022/12/15 02:16:57;;;;;;;66.53;42.10;;;-7.20;1.00;;;;;;5012210;28;20253;-79
2022/12/15 02:20:09;;;;;;;61.88;38.67;;;-7.20;1.00;;;;;;5065473;28;20295;-80
2022/12/15 02:23:19;;;;;;;60.90;40.22;;;-7.30;1.00;;;;;;5056372;28;20232;-78
2022/12/15 02:26:17;;;;;;;64.05;42.40;;;-7.40;1.00;;;;;;5076339;27;20236;-78
2022/12/15 02:28:56;;;;;;;62.88;42.22;;;-7.50;1.00;;;;;;5114601;27;20838;-79
2022/12/15 02:34:22;;;;;;;61.88;39.55;;;-7.60;1.00;;;;;;5114763;27;20238;-78
2022/12/15 02:36:52;;;;;;;62.80;41.22;;;-7.50;1.00;;;;;;5116487;27;20327;-77
2022/12/15 02:39:21;;;;;;;71.60;42.63;;;-7.50;1.00;;;;;;5115376;27;21013;-80
2022/12/15 02:41:50;;;;;;;72.75;44.08;;;-7.40;1.00;;;;;;5113994;27;20234;-78
2022/12/15 02:44:22;;;;;;;66.50;42.30;;;-7.40;1.00;;;;;;5116283;27;20243;-82
2022/12/15 02:47:10;;;;;;;71.47;44.80;;;-7.30;1.00;;;;;;5113631;27;20415;-79
2022/12/15 02:49:46;;;;;;;62.95;40.40;;;-7.30;1.00;;;;;;5115447;27;20231;-80
2022/12/15 02:52:26;;;;;;;66.35;41.70;;;-7.30;1.00;;;;;;5113636;27;20998;-78
2022/12/15 02:55:07;;;;;;;64.82;39.85;;;-7.30;1.00;;;;;;5104186;27;21219;-76
2022/12/15 02:57:42;;;;;;;68.18;42.10;;;-7.20;1.00;;;;;;5115713;27;20246;-78
2022/12/15 03:00:12;;;;;;;67.13;40.80;;;-7.20;1.00;;;;;;5117133;27;20238;-77
2022/12/15 03:02:44;;;;;;;62.05;40.65;;;-7.20;1.00;;;;;;5116735;27;20234;-78
2022/12/15 03:05:17;;;;;;;61.45;39.45;;;-7.20;1.00;;;;;;5117234;27;22931;-77
2022/12/15 03:07:44;;;;;;;64.40;41.83;;;-7.30;1.00;;;;;;5091069;27;20234;-78
2022/12/15 03:10:12;;;;;;;65.57;40.88;;;-7.30;1.00;;;;;;5118889;27;20231;-78
2022/12/15 03:12:40;;;;;;;60.30;42.38;;;-7.30;1.00;;;;;;5126539;27;20238;-80
2022/12/15 03:15:10;;;;;;;68.50;38.38;;;-7.20;1.00;;;;;;5112895;27;20230;-81
2022/12/15 03:17:40;;;;;;;65.00;41.05;;;-7.10;1.00;;;;;;5126697;27;23283;-78
2022/12/15 03:20:12;;;;;;;65.43;41.47;;;-7.10;1.00;;;;;;5129551;27;24601;-82
2022/12/15 03:22:43;;;;;;;64.90;41.30;;;-7.10;1.00;;;;;;5126040;27;20235;-80
2022/12/15 03:25:18;;;;;;;65.70;40.08;;;-7.00;1.00;;;;;;5124773;27;20230;-81
2022/12/15 03:27:59;;;;;;;69.65;43.38;;;-7.00;1.00;;;;;;5118531;27;20235;-78
2022/12/15 03:30:29;;;;;;;58.28;37.50;;;-6.90;1.00;;;;;;5107149;27;20235;-79
2022/12/15 03:33:01;;;;;;;55.33;38.50;;;-6.90;1.00;;;;;;5128806;27;21215;-78
2022/12/15 03:35:32;;;;;;;62.72;41.40;;;-6.80;1.00;;;;;;5125243;27;21044;-82
2022/12/15 03:37:59;;;;;;;62.28;41.33;;;-6.80;1.00;;;;;;5128135;27;20720;-78
2022/12/15 03:40:26;;;;;;;61.90;39.85;;;-6.70;1.00;;;;;;5128174;27;20239;-78
2022/12/15 03:42:55;;;;;;;64.20;39.13;;;-6.70;1.00;;;;;;5135443;27;20794;-77
2022/12/15 03:45:26;;;;;;;58.55;39.00;;;-6.60;1.00;;;;;;5134158;27;20265;-77
2022/12/15 03:48:00;;;;;;;64.18;37.58;;;-6.60;1.00;;;;;;5128806;27;20230;-79
2022/12/15 03:50:45;;;;;;;55.97;36.35;;;-6.60;1.00;;;;;;5120610;27;20228;-82
2022/12/15 03:53:18;;;;;;;62.38;38.60;;;-6.60;1.00;;;;;;5124521;27;20243;-80
2022/12/15 03:55:52;;;;;;;60.92;38.80;;;-6.60;1.00;;;;;;5123721;27;20223;-78
2022/12/15 03:58:20;;;;;;;63.33;40.80;;;-6.60;1.00;;;;;;5122359;27;20263;-82
2022/12/15 04:00:52;;;;;;;59.00;38.38;;;-6.60;1.00;;;;;;5121971;27;20294;-79
2022/12/15 04:03:20;;;;;;;62.90;39.38;;;-6.70;1.00;;;;;;5135771;27;20247;-81
2022/12/15 04:05:49;;;;;;;59.17;38.90;;;-6.80;1.00;;;;;;5123421;27;20223;-80
2022/12/15 04:08:25;;;;;;;60.13;38.17;;;-6.90;1.00;;;;;;5116810;27;20299;-79
2022/12/15 04:10:52;;;;;;;55.45;37.25;;;-7.00;1.00;;;;;;5116521;27;20298;-79
2022/12/15 04:13:19;;;;;;;63.95;38.83;;;-7.10;1.00;;;;;;5090354;27;20258;-76
2022/12/15 04:15:46;;;;;;;61.35;38.88;;;-7.20;1.00;;;;;;5115462;27;20285;-79
2022/12/15 04:18:13;;;;;;;59.88;36.75;;;-7.20;1.00;;;;;;5117868;27;20238;-79
2022/12/15 04:20:41;;;;;;;57.75;39.58;;;-7.20;1.00;;;;;;5117695;27;20241;-79
2022/12/15 04:23:09;;;;;;;65.90;38.92;;;-7.20;1.00;;;;;;5115999;27;20241;-80
2022/12/15 05:32:14;;;;;;;50.38;28.80;;;-7.70;1.00;;;;;;5103275;27;20224;-77
2022/12/15 05:34:44;;;;;;;59.08;32.13;;;-7.70;1.00;;;;;;5099697;27;20235;-80
2022/12/15 05:37:15;;;;;;;60.65;29.27;;;-7.60;1.00;;;;;;5071159;27;20707;-78
2022/12/15 05:39:45;;;;;;;55.95;31.83;;;-7.60;1.00;;;;;;5068717;27;20252;-79
2022/12/15 05:42:22;;;;;;;52.97;30.85;;;-7.60;1.00;;;;;;5093291;27;20227;-78
2022/12/15 05:45:24;;;;;;;55.53;32.90;;;-7.50;1.00;;;;;;5086505;27;20291;-80
2022/12/15 05:47:59;;;;;;;66.07;30.63;;;-7.50;1.00;;;;;;5075240;27;20242;-82
2022/12/15 05:50:26;;;;;;;54.75;27.50;;;-7.50;1.00;;;;;;5086867;27;21082;-81
2022/12/15 05:53:05;;;;;;;58.80;32.40;;;-7.60;1.00;;;;;;5098153;27;20235;-80
2022/12/15 05:55:42;;;;;;;56.05;31.48;;;-7.50;1.00;;;;;;5065175;27;20227;-80
2022/12/15 05:58:15;;;;;;;52.50;28.92;;;-7.50;1.00;;;;;;5068938;27;21084;-81
2022/12/15 06:00:46;;;;;;;49.70;31.27;;;-7.40;1.00;;;;;;5065377;27;20236;-81
2022/12/15 06:03:23;;;;;;;51.63;31.13;;;-7.40;1.00;;;;;;5075827;27;21051;-78
2022/12/15 06:05:52;;;;;;;55.60;34.80;;;-7.40;1.00;;;;;;5114806;27;20266;-82
2022/12/15 06:08:55;;;;;;;57.88;31.30;;;-7.30;1.00;;;;;;5111881;27;20234;-82
2022/12/15 06:11:34;;;;;;;54.67;31.38;;;-7.30;1.00;;;;;;5120971;27;20231;-80
2022/12/15 06:14:04;;;;;;;59.00;33.83;;;-7.20;1.00;;;;;;5101104;27;20227;-76
2022/12/15 06:16:36;;;;;;;55.13;30.88;;;-7.20;1.00;;;;;;5094325;27;20215;-81
2022/12/15 06:19:06;;;;;;;58.28;30.77;;;-7.20;1.00;;;;;;5124538;27;20235;-79
2022/12/15 06:21:54;;;;;;;55.85;30.13;;;-7.20;1.00;;;;;;5085237;27;20290;-79
2022/12/15 06:24:24;;;;;;;54.58;30.02;;;-7.20;1.00;;;;;;5108286;27;20943;-79
2022/12/15 06:26:55;;;;;;;60.35;32.47;;;-7.30;1.00;;;;;;5111237;27;20325;-83
2022/12/15 06:29:25;;;;;;;55.90;31.65;;;-7.30;1.00;;;;;;5100415;27;20235;-78
2022/12/15 06:31:56;;;;;;;65.97;33.15;;;-7.20;1.00;;;;;;5106208;27;20215;-76
2022/12/15 06:34:36;;;;;;;57.15;32.50;;;-7.20;1.00;;;;;;5092301;27;20222;-77
2022/12/15 06:37:06;;;;;;;62.20;34.22;;;-7.20;1.00;;;;;;5124770;27;20247;-78
2022/12/15 06:39:38;;;;;;;51.00;32.35;;;-7.40;1.00;;;;;;5084708;27;20237;-78
2022/12/15 06:42:36;;;;;;;63.80;33.80;;;-7.50;1.00;;;;;;5094769;27;20292;-79
2022/12/15 06:45:14;;;;;;;56.40;34.05;;;-7.60;1.00;;;;;;5121077;27;21043;-78
2022/12/15 06:47:55;;;;;;;57.13;31.55;;;-7.70;1.00;;;;;;5123227;27;20254;-78
2022/12/15 06:50:27;;;;;;;59.75;33.85;;;-7.70;1.00;;;;;;5125230;27;21043;-78
2022/12/15 06:52:54;;;;;;;59.15;34.13;;;-7.80;1.00;;;;;;5104488;27;20243;-78
2022/12/15 06:55:24;;;;;;;60.03;31.80;;;-7.90;1.00;;;;;;5115031;27;20202;-79
2022/12/15 06:57:55;;;;;;;54.20;31.23;;;-7.90;1.00;;;;;;5120037;27;20311;-79
2022/12/15 07:00:22;;;;;;;53.70;29.38;;;-8.00;1.00;;;;;;5118316;27;20239;-80
2022/12/15 07:02:50;;;;;;;51.47;32.30;;;-8.00;1.00;;;;;;5125328;27;20287;-79
2022/12/15 07:05:17;;;;;;;52.97;29.90;;;-8.10;1.00;;;;;;5117609;27;20290;-81
2022/12/15 07:07:52;;;;;;;51.72;31.80;;;-8.10;1.00;;;;;;5120385;27;21360;-80
2022/12/15 07:10:32;;;;;;;50.50;29.83;;;-8.10;1.00;;;;;;5115720;27;20234;-78
2022/12/15 07:13:04;;;;;;;54.80;30.42;;;-8.10;1.00;;;;;;5104496;27;20286;-79
2022/12/15 07:15:35;;;;;;;54.13;30.80;;;-8.10;1.00;;;;;;5123193;27;20219;-81
2022/12/15 07:18:05;;;;;;;50.50;30.25;;;-8.20;1.00;;;;;;5120494;27;20241;-78
2022/12/15 07:20:34;;;;;;;49.47;29.52;;;-8.20;1.00;;;;;;5123616;27;20246;-79
2022/12/15 07:23:08;;;;;;;56.05;30.77;;;-8.30;1.00;;;;;;5125034;27;20230;-79
2022/12/15 07:25:36;;;;;;;51.60;28.90;;;-8.30;1.00;;;;;;5094615;27;20282;-79
2022/12/15 07:28:04;;;;;;;54.63;30.65;;;-8.30;1.00;;;;;;5087069;27;20250;-81
2022/12/15 07:30:36;;;;;;;56.72;31.95;;;-8.20;1.00;;;;;;5109214;27;20235;-76
2022/12/15 07:33:14;;;;;;;54.17;30.00;;;-8.20;1.00;;;;;;5140658;27;20214;-78
2022/12/15 07:35:56;;;;;;;48.08;29.00;;;-8.20;1.00;;;;;;5112030;27;20231;-80
2022/12/15 07:38:26;;;;;;;50.38;28.65;;;-8.20;1.00;;;;;;5114187;27;20238;-78
2022/12/15 07:40:54;;;;;;;57.33;28.98;;;-8.20;1.00;;;;;;5093936;27;20239;-79
2022/12/15 07:43:23;;;;;;;56.65;32.38;;;-8.10;1.00;;;;;;5104970;27;20249;-80
2022/12/15 07:45:54;;;;;;;55.95;31.02;;;-8.10;1.00;;;;;;5097291;27;20223;-77
2022/12/15 07:51:24;;;;;;;47.10;28.95;;;-8.00;1.00;;;;;;5123615;27;21019;-77
2022/12/15 07:53:54;;;;;;;48.28;29.52;;;-8.00;1.00;;;;;;5117181;27;20239;-82
2022/12/15 07:56:32;;;;;;;51.40;28.80;;;-8.00;1.00;;;;;;5119507;27;20239;-77
2022/12/15 07:59:03;;;;;;;45.85;27.33;;;-7.90;1.00;;;;;;5124399;27;20234;-78
2022/12/15 08:01:53;;;;;;;44.13;27.35;;;-7.90;1.00;;;;;;5112882;27;20235;-80
2022/12/15 08:04:42;;;;;;;53.33;31.85;;;-7.90;1.00;;;;;;5094589;27;20238;-79
2022/12/15 08:10:27;;;;;;;51.92;26.17;;;-7.80;1.00;;;;;;5075603;27;20238;-77
2022/12/15 08:12:57;;;;;;;47.38;27.60;;;-7.80;1.00;;;;;;5129578;27;20234;-80
2022/12/15 08:15:26;;;;;;;44.25;26.05;;;-7.80;1.00;;;;;;5116445;27;20239;-77
2022/12/15 08:17:53;;;;;;;49.22;28.45;;;-7.80;1.00;;;;;;5108543;27;20261;-79
2022/12/15 08:20:22;;;;;;;48.80;26.52;;;-7.70;1.00;;;;;;5112180;27;20234;-78
2022/12/15 08:22:54;;;;;;;46.08;25.48;;;-7.80;1.00;;;;;;5117116;27;20230;-79
2022/12/15 08:25:27;;;;;;;47.60;26.58;;;-7.80;1.00;;;;;;5104877;27;20357;-81
2022/12/15 08:27:54;;;;;;;44.92;28.52;;;-7.90;1.00;;;;;;5083076;27;20235;-80
2022/12/15 08:30:23;;;;;;;45.55;26.45;;;-7.90;1.00;;;;;;5122163;27;20261;-82
2022/12/15 08:32:52;;;;;;;47.50;28.02;;;-8.00;1.00;;;;;;5108979;27;20246;-79
2022/12/15 08:35:28;;;;;;;44.97;25.73;;;-8.00;1.00;;;;;;5122577;27;20705;-78
2022/12/15 08:37:55;;;;;;;45.90;27.90;;;-7.90;1.00;;;;;;5118078;27;20230;-78
2022/12/15 08:40:26;;;;;;;53.58;29.42;;;-7.80;1.00;;;;;;5119427;27;20296;-78
2022/12/15 08:42:53;;;;;;;45.40;26.10;;;-7.70;1.00;;;;;;5110606;27;20242;-78
2022/12/15 08:45:24;;;;;;;45.75;29.67;;;-7.60;1.00;;;;;;5116151;27;20300;-78
2022/12/15 08:47:51;;;;;;;41.92;26.98;;;-7.50;1.00;;;;;;5116550;27;20245;-77
2022/12/15 08:50:19;;;;;;;44.38;27.15;;;-7.50;1.00;;;;;;5114201;27;20357;-80
2022/12/15 08:52:50;;;;;;;48.03;30.27;;;-7.40;1.00;;;;;;5084767;27;20263;-78
2022/12/15 08:55:19;;;;;;;46.80;27.73;;;-7.30;1.00;;;;;;5117812;27;20234;-80
2022/12/15 08:57:46;;;;;;;45.08;27.50;;;-7.10;1.00;;;;;;5119444;27;20588;-78
2022/12/15 09:00:15;;;;;;;46.38;28.55;;;-7.10;1.00;;;;;;5112127;27;20239;-80
2022/12/15 09:02:43;;;;;;;42.67;26.80;;;-7.00;1.00;;;;;;5111309;27;20317;-80
2022/12/15 09:05:12;;;;;;;45.50;27.30;;;-6.90;1.00;;;;;;5104605;27;21064;-78
2022/12/15 09:07:39;;;;;;;47.17;27.52;;;-6.80;1.00;;;;;;5091672;27;21158;-78
2022/12/15 09:10:12;;;;;;;43.45;27.70;;;-6.70;1.00;;;;;;5098291;27;20326;-77
2022/12/15 09:12:39;;;;;;;51.88;30.88;;;-6.40;1.00;;;;;;5086461;27;20250;-78
2022/12/15 09:15:07;;;;;;;44.83;28.58;;;-6.20;1.00;;;;;;5087049;27;20262;-82
2022/12/15 09:17:34;;;;;;;44.95;26.10;;;-6.30;1.00;;;;;;5080209;28;20232;-80
2022/12/15 09:20:02;;;;;;;48.33;28.65;;;-6.20;1.00;;;;;;5097400;27;20235;-82
2022/12/15 09:22:30;;;;;;;51.90;30.25;;;-6.20;1.00;;;;;;5097777;27;20266;-78
2022/12/15 09:25:04;;;;;;;44.15;26.75;;;-6.00;1.00;;;;;;5102904;27;20226;-80
2022/12/15 09:27:41;;;;;;;43.85;27.27;;;-5.90;1.00;;;;;;5060701;27;22038;-77
2022/12/15 09:30:14;;;;;;;40.83;25.23;;;-5.90;1.00;;;;;;5118374;27;20231;-77
2022/12/15 09:32:44;;;;;;;51.92;26.63;;;-5.90;1.00;;;;;;5111967;27;20236;-80
2022/12/15 09:35:13;;;;;;;42.45;26.73;;;-5.80;1.00;;;;;;5092264;27;20243;-80
2022/12/15 09:37:44;;;;;;;42.83;26.42;;;-5.70;1.00;;;;;;5095776;27;20228;-80
2022/12/15 09:40:23;;;;;;;44.28;27.40;;;-5.50;1.00;;;;;;5104881;27;20305;-80
2022/12/15 09:45:52;;;;;;;45.67;28.40;;;-5.40;1.00;;;;;;5099002;27;20257;-81
2022/12/15 09:48:25;;;;;;;41.90;26.27;;;-5.40;1.00;;;;;;5111525;27;20227;-82
2022/12/15 09:50:55;;;;;;;49.50;30.40;;;-5.20;1.00;;;;;;5087078;27;20245;-79
2022/12/15 09:53:30;;;;;;;42.00;26.60;;;-4.60;1.00;;;;;;5092733;27;20235;-79
2022/12/15 09:56:27;;;;;;;49.35;27.88;;;-3.70;1.00;;;;;;5080795;27;20229;-80
2022/12/15 09:59:15;;;;;;;;;;;;;;;;;;;;;
2022/12/15 10:01:52;;;;;;;44.05;26.23;;;-2.90;1.00;;;;;;5092642;27;40660;-78
2022/12/15 10:04:42;;;;;;;39.53;27.10;;;-2.60;1.00;;;;;;5093018;27;20257;-78
2022/12/15 10:07:31;;;;;;;40.65;26.77;;;-2.50;1.00;;;;;;5120189;27;20223;-77
2022/12/15 10:10:04;;;;;;;43.10;26.13;;;-2.70;1.00;;;;;;5124221;27;20224;-76
2022/12/15 10:12:46;;;;;;;40.63;27.08;;;-2.80;1.00;;;;;;5097668;27;20217;-79
2022/12/15 10:15:23;;;;;;;46.97;30.02;;;-2.40;1.00;;;;;;5100580;27;20260;-78
2022/12/15 10:21:12;;;;;;;43.40;27.35;;;-1.30;1.00;;;;;;5116223;27;20270;-80
2022/12/15 10:23:44;;;;;;;41.97;28.02;;;-1.50;1.00;;;;;;5088939;27;20334;-81
2022/12/15 10:29:44;;;;;;;42.95;26.55;;;-1.90;1.00;;;;;;5078085;27;20249;-80
2022/12/15 10:32:53;;;;;;;43.70;25.63;;;-2.20;1.00;;;;;;5098187;27;20252;-81
2022/12/15 10:35:32;;;;;;;41.95;26.17;;;-2.40;1.00;;;;;;5100006;27;20236;-82
2022/12/15 10:38:36;;;;;;;46.70;26.67;;;-2.60;1.00;;;;;;5097903;27;20793;-78
2022/12/15 10:41:16;;;;;;;;;;;;;;;;;;;;;
2022/12/15 10:43:53;;;;;;;40.97;27.52;;;-2.60;1.00;;;;;;5086030;27;40232;-81
2022/12/15 10:46:24;;;;;;;39.55;26.85;;;-1.50;1.00;;;;;;5115955;27;20970;-76
2022/12/15 10:49:21;;;;;;;39.97;26.17;;;-0.70;1.00;;;;;;5115030;27;20241;-78
2022/12/15 10:51:54;;;;;;;41.28;26.67;;;-0.40;1.00;;;;;;5110672;27;20765;-78
2022/12/15 10:54:32;;;;;;;45.38;28.35;;;-0.50;1.00;;;;;;5126879;27;20316;-79
2022/12/15 10:57:15;;;;;;;39.70;26.35;;;-0.60;1.00;;;;;;5084730;27;20268;-79
2022/12/15 10:59:43;;;;;;;40.30;27.02;;;-0.80;1.00;;;;;;5120704;27;20241;-80
2022/12/15 11:02:35;;;;;;;41.97;26.70;;;-1.10;1.00;;;;;;5125261;27;20244;-77
2022/12/15 11:05:16;;;;;;;36.88;25.95;;;-0.80;1.00;;;;;;5118051;27;20225;-80
2022/12/15 11:07:52;;;;;;;38.10;25.70;;;-0.10;1.00;;;;;;5117102;27;21962;-80
2022/12/15 11:10:24;;;;;;;40.38;26.00;;;0.90;1.00;;;;;;5124381;27;21121;-79
2022/12/15 11:12:56;;;;;;;34.67;23.92;;;2.00;1.00;;;;;;5126111;27;20324;-80
2022/12/15 11:15:45;;;;;;;38.15;25.48;;;2.30;1.00;;;;;;5132755;27;20232;-80
2022/12/15 11:18:35;;;;;;;37.22;25.42;;;1.30;1.00;;;;;;5148912;27;20232;-81
2022/12/15 11:21:11;;;;;;;42.47;26.45;;;0.80;1.00;;;;;;5123610;27;20284;-81
2022/12/15 11:23:48;;;;;;;37.22;24.67;;;0.80;1.00;;;;;;5111666;27;20253;-83
2022/12/15 11:26:26;;;;;;;34.33;24.33;;;1.10;1.00;;;;;;5132576;27;20294;-81
2022/12/15 11:29:10;;;;;;;40.83;26.00;;;1.20;1.00;;;;;;5135771;27;20392;-81
2022/12/15 11:31:42;;;;;;;42.30;27.30;;;1.50;1.00;;;;;;5125177;27;20246;-81
2022/12/15 11:34:14;;;;;;;36.35;25.30;;;1.60;1.00;;;;;;5140011;27;20294;-83
2022/12/15 11:37:23;;;;;;;41.78;27.35;;;1.60;1.00;;;;;;5139491;27;20386;-81
2022/12/15 11:40:46;;;;;;;40.13;24.33;;;1.70;1.00;;;;;;5118362;27;20231;-83
2022/12/15 11:43:45;;;;;;;36.00;24.15;;;2.50;1.00;;;;;;5126163;27;20978;-82
2022/12/15 11:46:24;;;;;;;36.45;22.45;;;3.00;1.00;;;;;;5108040;27;20238;-78
2022/12/15 11:49:28;;;;;;;35.40;25.05;;;2.40;1.00;;;;;;5134704;27;20314;-76
2022/12/15 11:52:03;;;;;;;33.63;23.63;;;1.90;1.00;;;;;;5137036;27;20227;-74
2022/12/15 11:54:39;;;;;;;40.58;25.85;;;1.10;1.00;;;;;;5131340;27;20283;-76
2022/12/15 11:57:33;;;;;;;38.30;25.58;;;0.70;1.00;;;;;;5133044;27;20330;-78
2022/12/15 12:00:05;;;;;;;36.45;25.25;;;0.40;1.00;;;;;;5132492;27;20407;-78
2022/12/15 12:03:10;;;;;;;37.15;25.17;;;0.30;1.00;;;;;;5102371;27;20238;-77
2022/12/15 12:09:43;;;;;;;35.15;24.13;;;0.10;1.00;;;;;;5024859;27;20254;-78
2022/12/15 12:12:20;;;;;;;40.47;25.40;;;0.10;1.00;;;;;;5130968;27;21028;-76
2022/12/15 12:14:59;;;;;;;37.75;26.00;;;-0.10;1.00;;;;;;5108259;27;20232;-77
2022/12/15 12:17:41;;;;;;;35.65;24.55;;;-0.20;1.00;;;;;;5128078;27;20238;-75
2022/12/15 12:20:16;;;;;;;37.97;24.40;;;-0.20;1.00;;;;;;5134151;27;20249;-77
2022/12/15 12:22:52;;;;;;;38.42;24.88;;;-0.20;1.00;;;;;;5129002;27;20249;-77
2022/12/15 12:25:24;;;;;;;41.50;24.42;;;-0.10;1.00;;;;;;5130938;27;20241;-77
2022/12/15 12:27:58;;;;;;;41.80;26.17;;;-0.10;1.00;;;;;;5132441;27;20242;-79
2022/12/15 12:30:27;;;;;;;38.78;25.90;;;-0.10;1.00;;;;;;5130108;27;20717;-77
2022/12/15 12:33:03;;;;;;;39.55;25.05;;;0.60;1.00;;;;;;5131975;27;20306;-77
2022/12/15 12:35:37;;;;;;;36.40;24.30;;;2.50;1.00;;;;;;5134394;27;20239;-77
2022/12/15 12:38:07;;;;;;;34.13;23.00;;;4.10;1.00;;;;;;5135344;27;20854;-76
2022/12/15 12:40:52;;;;;;;35.40;25.10;;;5.10;1.00;;;;;;5110877;27;20247;-77
2022/12/15 12:43:31;;;;;;;36.92;25.50;;;6.40;1.00;;;;;;5133167;27;20288;-76
2022/12/15 12:46:04;;;;;;;37.58;26.08;;;7.70;1.00;;;;;;5121934;27;20251;-77
2022/12/15 12:48:36;;;;;;;33.83;23.98;;;8.30;1.00;;;;;;5136333;27;20233;-85
2022/12/15 12:51:25;;;;;;;34.78;24.20;;;8.50;1.00;;;;;;5141191;27;20215;-85
2022/12/15 12:54:02;;;;;;;31.75;24.10;;;7.30;1.00;;;;;;5136336;27;20939;-84
2022/12/15 12:56:49;;;;;;;37.13;26.00;;;6.70;1.00;;;;;;5133793;27;20258;-82
2022/12/15 12:59:44;;;;;;;35.80;23.92;;;6.50;1.00;;;;;;5118963;27;20238;-87
2022/12/15 13:06:35;;;;;;;34.95;25.20;;;6.50;1.00;;;;;;3315347;25;20259;-84
2022/12/15 13:09:24;;;;;;;37.40;24.13;;;7.30;1.00;;;;;;5074394;28;20228;-83
2022/12/15 13:14:55;;;;;;;34.58;23.20;;;4.20;1.00;;;;;;5068824;28;20224;-82
2022/12/15 13:17:45;;;;;;;43.53;31.27;;;3.10;1.00;;;;;;5084878;28;20228;-79
2022/12/15 13:20:44;;;;;;;32.47;23.95;;;2.40;1.00;;;;;;5081753;28;20233;-76
2022/12/15 13:23:42;;;;;;;34.45;23.17;;;1.70;1.00;;;;;;5095038;28;20322;-80
2022/12/15 13:26:18;;;;;;;34.38;23.40;;;1.20;1.00;;;;;;5099074;28;20256;-78
2022/12/15 13:28:51;;;;;;;38.00;24.45;;;0.70;1.00;;;;;;5085154;28;20219;-77
2022/12/15 13:31:51;;;;;;;36.42;24.75;;;0.50;1.00;;;;;;5097317;28;20232;-78
2022/12/15 13:34:43;;;;;;;35.33;24.30;;;0.30;1.00;;;;;;5092406;28;20365;-84
2022/12/15 13:37:47;;;;;;;35.25;23.65;;;0.10;1.00;;;;;;5089674;28;20235;-79
2022/12/15 13:41:24;;;;;;;43.17;25.40;;;-0.10;1.00;;;;;;5046762;28;20278;-77
2022/12/15 13:44:32;;;;;;;33.83;22.02;;;-0.20;1.00;;;;;;5056203;28;20230;-80
2022/12/15 13:47:16;;;;;;;34.28;26.33;;;-0.30;1.00;;;;;;5092072;28;20299;-80
2022/12/15 13:50:13;;;;;;;38.83;26.73;;;-0.40;1.00;;;;;;5099666;28;20246;-78
2022/12/15 13:52:55;;;;;;;36.90;25.20;;;-0.50;1.00;;;;;;5095274;28;20232;-79
2022/12/15 13:55:32;;;;;;;36.17;24.02;;;-0.60;1.00;;;;;;5081179;28;20249;-83
2022/12/15 13:58:16;;;;;;;36.55;24.40;;;-0.70;1.00;;;;;;5090459;28;20324;-78
2022/12/15 14:00:54;;;;;;;37.97;25.27;;;-0.70;1.00;;;;;;5082403;28;20465;-80
2022/12/15 14:03:24;;;;;;;40.80;25.55;;;-0.70;1.00;;;;;;5103357;28;20233;-80
2022/12/15 14:06:04;;;;;;;36.47;23.92;;;-0.70;1.00;;;;;;5089263;28;20233;-80
2022/12/15 14:08:56;;;;;;;34.78;23.52;;;-0.80;1.00;;;;;;5049265;28;20222;-80
2022/12/15 14:11:43;;;;;;;36.33;24.40;;;-0.80;1.00;;;;;;5036496;28;20227;-79
2022/12/15 14:14:26;;;;;;;40.15;25.55;;;-0.90;1.00;;;;;;5072157;28;20251;-83
2022/12/15 14:17:04;;;;;;;37.88;24.40;;;-0.90;1.00;;;;;;5080811;28;20235;-80
2022/12/15 14:19:56;;;;;;;;;;;;;;;;;;;;;
2022/12/15 14:22:25;;;;;;;36.75;24.42;;;-1.10;1.00;;;;;;5073203;28;41181;-81
2022/12/15 14:25:26;;;;;;;;;;;;;;;;;;;;;
2022/12/15 14:27:54;;;;;;;37.65;25.35;;;-1.20;1.00;;;;;;5045611;28;49562;-82
2022/12/15 14:30:31;;;;;;;39.47;24.50;;;-1.20;1.00;;;;;;5095906;28;20340;-80
2022/12/15 14:33:12;;;;;;;37.78;24.52;;;-1.20;1.00;;;;;;5102276;28;20249;-85
2022/12/15 14:35:57;;;;;;;40.53;25.23;;;-1.30;1.00;;;;;;5082687;28;21898;-82
2022/12/15 14:38:36;;;;;;;38.85;25.35;;;-1.40;1.00;;;;;;5079284;27;20364;-84
2022/12/15 14:41:12;;;;;;;38.88;25.17;;;-1.40;1.00;;;;;;5079534;28;20243;-82
2022/12/15 14:44:05;;;;;;;35.20;24.88;;;-1.50;1.00;;;;;;5080192;28;20238;-82
2022/12/15 14:46:34;;;;;;;40.58;24.55;;;-1.60;1.00;;;;;;5067929;28;20241;-80
2022/12/15 14:49:06;;;;;;;46.10;26.65;;;-1.70;1.00;;;;;;5090415;28;20286;-80
2022/12/15 14:51:44;;;;;;;40.65;25.67;;;-1.80;1.00;;;;;;5096876;28;20239;-80
2022/12/15 14:54:29;;;;;;;37.45;24.42;;;-1.80;1.00;;;;;;5102567;28;20243;-80
2022/12/15 14:57:03;;;;;;;36.78;25.02;;;-1.80;1.00;;;;;;5106070;28;20212;-81
2022/12/15 14:59:33;;;;;;;38.75;25.13;;;-1.90;1.00;;;;;;5098248;28;20224;-81
2022/12/15 15:02:15;;;;;;;38.97;25.60;;;-2.00;1.00;;;;;;5083563;28;21090;-80
2022/12/15 15:04:55;;;;;;;44.78;31.02;;;-2.00;1.00;;;;;;5053277;28;20245;-80
2022/12/15 15:07:23;;;;;;;38.80;25.63;;;-2.00;1.00;;;;;;5086969;28;20227;-81
2022/12/15 15:10:23;;;;;;;40.60;25.98;;;-2.10;1.00;;;;;;5097422;28;20311;-81
2022/12/15 15:13:15;;;;;;;38.03;24.50;;;-2.20;1.00;;;;;;5073658;28;20250;-79
2022/12/15 15:15:55;;;;;;;41.17;26.50;;;-2.20;1.00;;;;;;5061905;27;20353;-78
2022/12/15 15:18:35;;;;;;;39.75;25.30;;;-2.20;1.00;;;;;;5054236;28;20287;-81
2022/12/15 15:21:14;;;;;;;41.95;25.48;;;-2.20;1.00;;;;;;5085867;28;20237;-82
2022/12/15 15:23:41;;;;;;;43.25;27.45;;;-2.30;1.00;;;;;;5075744;28;20342;-81
2022/12/15 15:26:16;;;;;;;39.92;26.23;;;-2.30;1.00;;;;;;5080361;28;20248;-80
2022/12/15 15:28:46;;;;;;;37.42;25.83;;;-2.30;1.00;;;;;;5089462;28;20242;-79
2022/12/15 15:31:40;;;;;;;35.10;25.27;;;-2.30;1.00;;;;;;5094758;28;20323;-81
2022/12/15 15:34:15;;;;;;;37.60;26.80;;;-2.40;1.00;;;;;;5094645;28;20278;-83
2022/12/15 15:36:48;;;;;;;37.55;25.25;;;-2.40;1.00;;;;;;5068868;28;20231;-80
2022/12/15 15:39:20;;;;;;;41.10;26.58;;;-2.50;1.00;;;;;;5098890;28;20250;-79
2022/12/15 15:41:54;;;;;;;40.33;26.92;;;-2.50;1.00;;;;;;5087609;28;20242;-83
2022/12/15 15:44:24;;;;;;;36.17;24.33;;;-2.40;1.00;;;;;;5072132;28;20222;-82
2022/12/15 15:47:02;;;;;;;38.42;25.08;;;-2.40;1.00;;;;;;5079632;28;20277;-81
2022/12/15 15:58:06;;;;;;;38.08;25.58;;;-2.40;1.00;;;;;;5113568;27;20243;-86
2022/12/15 16:00:46;;;;;;;35.63;24.60;;;-2.40;1.00;;;;;;5124838;27;20300;-80
2022/12/15 16:03:14;;;;;;;35.88;26.25;;;-2.40;1.00;;;;;;5105026;27;20315;-78
2022/12/15 16:05:43;;;;;;;35.03;25.30;;;-2.50;1.00;;;;;;5115515;27;20235;-77
2022/12/15 16:08:16;;;;;;;42.20;25.20;;;-2.50;1.00;;;;;;5130202;27;20765;-77
2022/12/15 16:10:52;;;;;;;39.10;28.85;;;-2.50;1.00;;;;;;5139303;27;20675;-77
2022/12/15 16:13:21;;;;;;;40.83;26.13;;;-2.50;1.00;;;;;;5143411;27;20236;-78
2022/12/15 16:15:51;;;;;;;40.42;26.95;;;-2.50;1.00;;;;;;5124539;27;20233;-78
2022/12/15 16:18:20;;;;;;;38.25;26.20;;;-2.50;1.00;;;;;;5141276;27;21081;-77
2022/12/15 16:20:49;;;;;;;42.13;28.15;;;-2.60;1.00;;;;;;5138298;27;20239;-77
2022/12/15 16:23:23;;;;;;;37.30;26.45;;;-2.60;1.00;;;;;;5141660;27;20240;-79
2022/12/15 16:25:54;;;;;;;37.25;25.45;;;-2.70;1.00;;;;;;5113947;27;20235;-78
2022/12/15 16:28:25;;;;;;;42.15;26.80;;;-2.80;1.00;;;;;;5138762;27;20637;-77
2022/12/15 16:30:54;;;;;;;44.25;26.35;;;-2.80;1.00;;;;;;5137532;27;20278;-78
2022/12/15 16:33:21;;;;;;;40.58;27.17;;;-2.90;1.00;;;;;;5142677;27;20243;-79
2022/12/15 16:35:50;;;;;;;49.90;30.08;;;-2.90;1.00;;;;;;5140013;27;20703;-80